createdAt,value
2018-11-29T00:01:13.035Z,29.67
2018-11-29T00:05:21.931Z,31.23
2018-11-29T00:09:39.725Z,26.97
2018-11-29T00:13:47.413Z,30.93
2018-11-29T00:17:55.118Z,29.93
2018-11-29T00:22:02.824Z,30.83
2018-11-29T00:26:10.603Z,31.67
2018-11-29T00:30:27.447Z,29.10
2018-11-29T00:34:37.751Z,32.27
2018-11-29T00:38:45.483Z,30.23
2018-11-29T00:42:53.244Z,30.13
2018-11-29T00:47:01.020Z,31.50
2018-11-29T00:51:09.050Z,31.63
2018-11-29T00:55:21.858Z,32.20
2018-11-29T00:59:30.441Z,31.10
2018-11-29T01:03:39.011Z,32.60
2018-11-29T01:07:47.312Z,30.90
2018-11-29T01:11:55.850Z,30.93
2018-11-29T01:16:03.718Z,29.77
2018-11-29T01:20:19.026Z,32.87
2018-11-29T01:24:27.478Z,34.60
2018-11-29T01:28:35.388Z,29.87
2018-11-29T01:32:43.496Z,31.63
2018-11-29T01:36:51.357Z,29.40
2018-11-29T01:40:59.083Z,33.47
2018-11-29T01:45:07.111Z,32.83
2018-11-29T01:49:15.001Z,31.47
2018-11-29T01:53:22.908Z,30.57
2018-11-29T01:57:30.684Z,31.80
2018-11-29T02:01:38.432Z,31.93
2018-11-29T02:05:46.048Z,33.53
2018-11-29T02:10:13.091Z,29.63
2018-11-29T02:14:20.930Z,33.47
2018-11-29T02:18:28.590Z,31.40
2018-11-29T02:22:36.278Z,30.80
2018-11-29T02:26:43.906Z,32.90
2018-11-29T02:30:51.499Z,31.30
2018-11-29T02:35:01.617Z,31.17
2018-11-29T02:39:10.958Z,30.23
2018-11-29T02:43:18.627Z,28.13
2018-11-29T02:47:27.232Z,30.27
2018-11-29T02:51:34.945Z,30.80
2018-11-29T02:55:42.680Z,28.93
2018-11-29T02:59:50.359Z,30.10
2018-11-29T03:03:58.418Z,28.87
2018-11-29T03:08:06.432Z,28.33
2018-11-29T03:12:14.127Z,29.83
2018-11-29T03:16:21.924Z,29.07
2018-11-29T03:20:29.993Z,29.33
2018-11-29T03:24:37.797Z,27.17
2018-11-29T03:28:45.671Z,29.83
2018-11-29T03:32:54.325Z,30.00
2018-11-29T03:37:01.852Z,28.63
2018-11-29T03:41:10.081Z,28.87
2018-11-29T03:45:18.534Z,29.63
2018-11-29T03:49:26.571Z,28.50
2018-11-29T03:53:34.379Z,27.97
2018-11-29T03:57:43.159Z,29.83
2018-11-29T04:01:57.637Z,26.80
2018-11-29T04:06:07.303Z,27.70
2018-11-29T04:10:17.039Z,26.70
2018-11-29T04:14:25.440Z,26.47
2018-11-29T04:18:33.083Z,28.13
2018-11-29T04:22:40.674Z,28.33
2018-11-29T04:26:48.143Z,26.57
2018-11-29T04:30:55.912Z,29.13
2018-11-29T04:35:03.699Z,28.13
2018-11-29T04:39:11.293Z,28.00
2018-11-29T04:43:19.231Z,26.03
2018-11-29T04:47:32.714Z,26.97
2018-11-29T04:51:43.465Z,27.37
2018-11-29T04:55:51.049Z,27.53
2018-11-29T04:59:58.760Z,28.00
2018-11-29T05:04:06.959Z,27.03
2018-11-29T05:08:14.864Z,27.33
2018-11-29T05:12:22.662Z,25.93
2018-11-29T05:16:30.631Z,26.30
2018-11-29T05:20:38.299Z,25.90
2018-11-29T05:24:46.164Z,26.87
2018-11-29T05:28:54.363Z,26.93
2018-11-29T05:33:02.205Z,27.73
2018-11-29T05:37:10.229Z,29.97
2018-11-29T05:41:18.056Z,26.90
2018-11-29T05:45:26.430Z,27.27
2018-11-29T05:49:34.444Z,26.37
2018-11-29T05:53:42.319Z,28.03
2018-11-29T05:57:49.832Z,26.23
2018-11-29T06:01:58.123Z,27.67
2018-11-29T06:06:05.756Z,27.20
2018-11-29T06:10:14.250Z,29.13
2018-11-29T06:14:22.744Z,26.97
2018-11-29T06:18:30.833Z,27.80
2018-11-29T06:22:39.606Z,29.03
2018-11-29T06:26:47.287Z,26.47
2018-11-29T06:30:55.929Z,28.00
2018-11-29T06:35:06.149Z,27.23
2018-11-29T06:39:14.069Z,29.53
2018-11-29T06:43:22.005Z,27.57
2018-11-29T06:47:30.207Z,28.60
2018-11-29T06:51:38.126Z,28.23
2018-11-29T06:55:46.665Z,25.67
2018-11-29T06:59:54.820Z,27.77
2018-11-29T07:04:03.708Z,28.97
2018-11-29T07:08:11.698Z,30.00
2018-11-29T07:12:20.099Z,27.90
2018-11-29T07:16:27.708Z,26.17
2018-11-29T07:20:36.094Z,30.10
2018-11-29T07:24:43.778Z,28.70
2018-11-29T07:28:51.682Z,28.50
2018-11-29T07:32:59.659Z,28.33
2018-11-29T07:37:07.404Z,30.63
2018-11-29T07:41:14.844Z,28.83
2018-11-29T07:45:23.539Z,30.37
2018-11-29T07:49:33.792Z,29.13
2018-11-29T07:53:41.218Z,29.80
2018-11-29T07:57:50.331Z,28.93
2018-11-29T08:01:57.826Z,29.97
2018-11-29T08:06:05.403Z,29.77
2018-11-29T08:10:17.329Z,29.70
2018-11-29T08:14:24.904Z,27.10
2018-11-29T08:18:33.248Z,29.17
2018-11-29T08:22:40.829Z,28.97
2018-11-29T08:26:48.241Z,28.73
2018-11-29T08:30:55.643Z,28.07
2018-11-29T08:35:03.541Z,30.63
2018-11-29T08:39:14.434Z,30.20
2018-11-29T08:43:23.307Z,29.73
2018-11-29T08:47:33.556Z,27.67
2018-11-29T08:51:41.457Z,28.67
2018-11-29T08:55:49.067Z,29.07
2018-11-29T08:59:56.955Z,25.03
2018-11-29T09:04:04.507Z,30.73
2018-11-29T09:08:12.196Z,27.97
2018-11-29T09:12:19.787Z,28.63
2018-11-29T09:16:27.601Z,29.90
2018-11-29T09:20:38.668Z,31.17
2018-11-29T09:24:46.242Z,28.10
2018-11-29T09:28:53.950Z,28.37
2018-11-29T09:33:01.477Z,27.57
2018-11-29T09:37:09.374Z,30.13
2018-11-29T09:41:17.225Z,28.03
2018-11-29T09:45:26.143Z,28.77
2018-11-29T09:49:33.858Z,27.20
2018-11-29T09:53:43.339Z,26.33
2018-11-29T09:57:51.698Z,25.90
2018-11-29T10:01:59.439Z,27.97
2018-11-29T10:06:07.091Z,26.23
2018-11-29T10:10:15.104Z,26.33
2018-11-29T10:14:22.750Z,27.50
2018-11-29T10:18:31.117Z,26.67
2018-11-29T10:22:40.521Z,27.13
2018-11-29T10:26:48.347Z,22.87
2018-11-29T10:31:03.849Z,25.73
2018-11-29T10:35:12.658Z,26.20
2018-11-29T10:39:20.731Z,25.90
2018-11-29T10:43:28.342Z,26.17
2018-11-29T10:47:36.863Z,27.43
2018-11-29T10:51:44.393Z,25.87
2018-11-29T10:55:52.093Z,25.40
2018-11-29T11:00:00.010Z,25.07
2018-11-29T11:04:08.088Z,24.40
2018-11-29T11:08:16.068Z,24.47
2018-11-29T11:12:23.768Z,24.27
2018-11-29T11:16:31.344Z,24.93
2018-11-29T11:20:39.231Z,24.97
2018-11-29T11:24:46.871Z,25.20
2018-11-29T11:28:54.607Z,25.13
2018-11-29T11:33:02.587Z,26.00
2018-11-29T11:37:10.353Z,26.33
2018-11-29T11:41:18.118Z,24.17
2018-11-29T11:45:26.030Z,23.97
2018-11-29T11:49:34.117Z,24.40
2018-11-29T11:53:41.982Z,24.10
2018-11-29T11:57:50.570Z,23.37
2018-11-29T12:01:58.527Z,24.83
2018-11-29T12:06:06.178Z,24.63
2018-11-29T12:10:15.758Z,23.57
2018-11-29T12:14:26.879Z,24.37
2018-11-29T12:18:35.554Z,23.80
2018-11-29T12:22:43.365Z,23.20
2018-11-29T12:26:51.494Z,23.80
2018-11-29T12:31:06.750Z,21.83
2018-11-29T12:35:14.424Z,21.30
2018-11-29T12:39:26.734Z,24.17
2018-11-29T12:43:37.321Z,22.87
2018-11-29T12:47:47.465Z,21.80
2018-11-29T12:51:55.872Z,23.83
2018-11-29T12:56:06.521Z,23.57
2018-11-29T13:00:19.392Z,23.07
2018-11-29T13:04:27.389Z,22.30
2018-11-29T13:08:35.193Z,23.10
2018-11-29T13:12:43.137Z,22.37
2018-11-29T13:16:54.311Z,23.73
2018-11-29T13:21:07.928Z,23.20
2018-11-29T13:25:20.383Z,23.50
2018-11-29T13:29:28.655Z,24.43
2018-11-29T13:33:41.866Z,23.77
2018-11-29T13:38:18.185Z,24.37
2018-11-29T13:42:26.097Z,24.97
2018-11-29T13:46:34.248Z,24.87
2018-11-29T13:50:42.340Z,23.83
2018-11-29T13:54:50.910Z,24.53
2018-11-29T13:58:58.370Z,24.13
2018-11-29T14:03:15.639Z,25.07
2018-11-29T14:07:27.090Z,23.47
2018-11-29T14:11:38.024Z,22.23
2018-11-29T14:15:45.726Z,23.80
2018-11-29T14:19:53.854Z,24.93
2018-11-29T14:24:02.704Z,23.07
2018-11-29T14:28:11.457Z,25.43
2018-11-29T14:32:19.009Z,23.53
2018-11-29T14:36:28.467Z,23.00
2018-11-29T14:40:38.812Z,24.33
2018-11-29T14:44:47.289Z,23.23
2018-11-29T14:48:56.074Z,23.27
2018-11-29T14:53:03.669Z,22.47
2018-11-29T14:57:20.736Z,23.03
2018-11-29T15:01:29.044Z,21.67
2018-11-29T15:05:38.465Z,21.87
2018-11-29T15:09:46.368Z,19.87
2018-11-29T15:13:54.119Z,21.87
2018-11-29T15:18:01.953Z,21.80
2018-11-29T15:22:10.925Z,22.37
2018-11-29T15:26:19.608Z,20.80
2018-11-29T15:30:27.812Z,19.43
2018-11-29T15:34:36.824Z,20.70
2018-11-29T15:38:45.099Z,20.50
2018-11-29T15:42:54.051Z,18.90
2018-11-29T15:47:01.537Z,20.67
2018-11-29T15:51:10.583Z,18.70
2018-11-29T15:55:30.128Z,20.37
2018-11-29T15:59:41.159Z,21.67
2018-11-29T16:03:52.515Z,19.47
2018-11-29T16:08:01.246Z,16.93
2018-11-29T16:12:12.446Z,18.93
2018-11-29T16:16:19.988Z,20.10
2018-11-29T16:20:32.876Z,20.17
2018-11-29T16:24:44.415Z,19.27
2018-11-29T16:28:56.229Z,18.07
2018-11-29T16:33:35.317Z,17.90
2018-11-29T16:37:43.993Z,19.87
2018-11-29T16:41:55.584Z,19.70
2018-11-29T16:46:03.852Z,18.43
2018-11-29T16:50:17.263Z,18.83
2018-11-29T16:54:25.123Z,18.73
2018-11-29T16:58:33.482Z,19.17
2018-11-29T17:02:41.033Z,17.83
2018-11-29T17:06:48.179Z,17.83
2018-11-29T17:10:56.734Z,17.67
2018-11-29T17:15:04.346Z,17.70
2018-11-29T17:19:11.936Z,18.03
2018-11-29T17:23:25.995Z,18.23
2018-11-29T17:27:33.832Z,36.77
2018-11-29T17:31:43.943Z,17.73
2018-11-29T17:35:51.735Z,16.77
2018-11-29T17:40:04.071Z,16.20
2018-11-29T17:44:12.019Z,17.30
2018-11-29T17:48:19.940Z,17.67
2018-11-29T17:52:28.085Z,17.83
2018-11-29T17:56:35.812Z,17.83
2018-11-29T18:00:50.590Z,16.53
2018-11-29T18:04:59.185Z,17.20
2018-11-29T18:09:12.197Z,17.63
2018-11-29T18:13:32.010Z,18.23
2018-11-29T18:17:44.773Z,19.73
2018-11-29T18:21:59.760Z,17.50
2018-11-29T18:26:08.264Z,17.00
2018-11-29T18:30:21.125Z,15.43
2018-11-29T18:34:29.277Z,16.47
2018-11-29T18:38:37.115Z,14.77
2018-11-29T18:42:49.140Z,16.00
2018-11-29T18:47:02.296Z,15.53
2018-11-29T18:51:10.561Z,15.43
2018-11-29T18:55:18.730Z,15.33
2018-11-29T18:59:26.649Z,17.70
2018-11-29T19:03:34.651Z,17.50
2018-11-29T19:07:42.914Z,16.87
2018-11-29T19:11:51.282Z,16.90
2018-11-29T19:15:59.008Z,15.33
2018-11-29T19:20:09.269Z,15.87
2018-11-29T19:24:26.049Z,16.13
2018-11-29T19:28:37.186Z,14.73
2018-11-29T19:32:45.303Z,16.37
2018-11-29T19:37:00.998Z,15.60
2018-11-29T19:41:11.841Z,15.13
2018-11-29T19:45:19.951Z,14.47
2018-11-29T19:49:27.733Z,15.87
2018-11-29T19:53:35.999Z,15.00
2018-11-29T19:57:43.933Z,14.50
2018-11-29T20:01:58.755Z,15.00
2018-11-29T20:06:07.218Z,15.20
2018-11-29T20:10:27.086Z,14.83
2018-11-29T20:14:34.078Z,15.70
2018-11-29T20:18:43.405Z,14.87
2018-11-29T20:22:51.448Z,15.77
2018-11-29T20:26:59.139Z,15.80
2018-11-29T20:31:07.623Z,15.10
2018-11-29T20:35:20.226Z,14.27
2018-11-29T20:39:28.221Z,15.43
2018-11-29T20:43:36.136Z,14.73
2018-11-29T20:47:44.364Z,15.40
2018-11-29T20:51:52.005Z,14.37
2018-11-29T20:55:59.561Z,14.43
2018-11-29T21:00:12.020Z,14.37
2018-11-29T21:04:20.116Z,15.03
2018-11-29T21:08:28.001Z,14.43
2018-11-29T21:12:36.540Z,15.03
2018-11-29T21:16:45.803Z,14.47
2018-11-29T21:20:53.257Z,14.30
2018-11-29T21:25:00.715Z,13.97
2018-11-29T21:29:09.355Z,15.10
2018-11-29T21:33:17.491Z,14.97
2018-11-29T21:37:29.784Z,14.27
2018-11-29T21:41:38.651Z,14.77
2018-11-29T21:45:48.639Z,15.03
2018-11-29T21:49:56.665Z,14.30
2018-11-29T21:54:08.239Z,15.07
2018-11-29T21:58:22.291Z,15.40
2018-11-29T22:02:35.783Z,14.60
2018-11-29T22:06:46.061Z,15.53
2018-11-29T22:11:03.870Z,15.47
2018-11-29T22:15:13.929Z,15.87
2018-11-29T22:19:24.339Z,15.53
2018-11-29T22:23:38.718Z,15.47
2018-11-29T22:27:49.440Z,15.33
2018-11-29T22:31:57.956Z,16.30
2018-11-29T22:36:07.927Z,16.80
2018-11-29T22:40:24.321Z,15.60
2018-11-29T22:44:34.003Z,16.27
2018-11-29T22:48:53.191Z,16.33
2018-11-29T22:53:04.380Z,16.67
2018-11-29T22:57:11.781Z,16.43
2018-11-29T23:01:28.804Z,16.47
2018-11-29T23:05:36.475Z,14.53
2018-11-29T23:09:43.936Z,16.40
2018-11-29T23:13:51.403Z,16.10
2018-11-29T23:17:59.219Z,14.83
2018-11-29T23:22:06.946Z,15.60
2018-11-29T23:26:14.578Z,16.20
2018-11-29T23:30:22.378Z,16.20
2018-11-29T23:34:29.844Z,16.20
2018-11-29T23:38:38.343Z,16.80
2018-11-29T23:42:46.207Z,16.57
2018-11-29T23:46:53.744Z,16.37
2018-11-29T23:51:01.260Z,15.77
2018-11-29T23:55:11.318Z,15.30
2018-11-29T23:59:19.018Z,16.20
